sensor_id;sensor_type;location;lat;lon;timestamp;pressure;altitude;pressure_sealevel;temperature;humidity
70921;BME280;58572;48.110;19.838;2024-02-23T00:00:59;96417.00;;;10.72;60.75
70921;BME280;58572;48.110;19.838;2024-02-23T00:03:27;96455.34;;;11.14;60.94
70921;BME280;58572;48.110;19.838;2024-02-23T00:05:55;96453.28;;;10.59;62.91
70921;BME280;58572;48.110;19.838;2024-02-23T00:08:23;96448.47;;;10.99;60.63
70921;BME280;58572;48.110;19.838;2024-02-23T00:10:50;96450.81;;;11.35;59.44
70921;BME280;58572;48.110;19.838;2024-02-23T00:13:17;96452.13;;;11.46;59.70
70921;BME280;58572;48.110;19.838;2024-02-23T00:15:44;96457.03;;;10.23;63.57
70921;BME280;58572;48.110;19.838;2024-02-23T00:18:11;96456.00;;;11.11;61.00
70921;BME280;58572;48.110;19.838;2024-02-23T00:20:40;96456.31;;;11.18;60.81
70921;BME280;58572;48.110;19.838;2024-02-23T00:23:07;96455.97;;;11.28;59.14
70921;BME280;58572;48.110;19.838;2024-02-23T00:25:35;96450.69;;;11.23;61.21
70921;BME280;58572;48.110;19.838;2024-02-23T00:28:03;96448.00;;;11.06;60.55
70921;BME280;58572;48.110;19.838;2024-02-23T00:30:30;96452.16;;;10.77;62.93
70921;BME280;58572;48.110;19.838;2024-02-23T00:32:57;96448.66;;;10.94;60.38
70921;BME280;58572;48.110;19.838;2024-02-23T00:35:24;96441.91;;;11.00;60.57
70921;BME280;58572;48.110;19.838;2024-02-23T00:37:51;96443.81;;;11.17;61.00
70921;BME280;58572;48.110;19.838;2024-02-23T00:40:18;96450.88;;;11.09;61.70
70921;BME280;58572;48.110;19.838;2024-02-23T00:42:47;96451.28;;;11.55;59.71
70921;BME280;58572;48.110;19.838;2024-02-23T00:45:14;96455.19;;;10.93;62.37
70921;BME280;58572;48.110;19.838;2024-02-23T00:47:42;96450.22;;;11.21;60.61
70921;BME280;58572;48.110;19.838;2024-02-23T00:50:09;96449.91;;;11.05;61.81
70921;BME280;58572;48.110;19.838;2024-02-23T00:52:37;96455.84;;;10.81;61.98
70921;BME280;58572;48.110;19.838;2024-02-23T00:55:05;96439.88;;;10.14;65.76
70921;BME280;58572;48.110;19.838;2024-02-23T00:57:33;96437.44;;;10.61;63.25
70921;BME280;58572;48.110;19.838;2024-02-23T01:00:03;96438.38;;;11.17;61.43
70921;BME280;58572;48.110;19.838;2024-02-23T01:02:31;96441.28;;;10.77;63.42
70921;BME280;58572;48.110;19.838;2024-02-23T01:04:58;96439.34;;;11.04;62.03
70921;BME280;58572;48.110;19.838;2024-02-23T01:07:25;96440.31;;;10.65;64.54
70921;BME280;58572;48.110;19.838;2024-02-23T01:09:52;96438.09;;;10.93;62.48
70921;BME280;58572;48.110;19.838;2024-02-23T01:12:19;96422.84;;;9.83;66.15
70921;BME280;58572;48.110;19.838;2024-02-23T01:14:46;96435.88;;;10.12;66.90
70921;BME280;58572;48.110;19.838;2024-02-23T01:17:15;96435.97;;;9.89;67.70
70921;BME280;58572;48.110;19.838;2024-02-23T01:19:43;96431.06;;;10.66;62.86
70921;BME280;58572;48.110;19.838;2024-02-23T01:22:10;96429.41;;;10.39;64.19
70921;BME280;58572;48.110;19.838;2024-02-23T01:24:37;96435.16;;;10.29;65.31
70921;BME280;58572;48.110;19.838;2024-02-23T01:27:04;96427.25;;;10.18;64.20
70921;BME280;58572;48.110;19.838;2024-02-23T01:29:31;96418.41;;;10.87;63.08
70921;BME280;58572;48.110;19.838;2024-02-23T01:31:58;96417.56;;;11.21;61.13
70921;BME280;58572;48.110;19.838;2024-02-23T01:34:27;96416.66;;;11.00;61.88
70921;BME280;58572;48.110;19.838;2024-02-23T01:36:54;96377.28;;;9.63;67.20
70921;BME280;58572;48.110;19.838;2024-02-23T01:39:21;96409.03;;;10.10;64.80
70921;BME280;58572;48.110;19.838;2024-02-23T01:41:48;96400.50;;;10.95;62.87
70921;BME280;58572;48.110;19.838;2024-02-23T01:44:15;96399.22;;;10.83;63.25
70921;BME280;58572;48.110;19.838;2024-02-23T01:46:42;96401.91;;;11.18;61.62
70921;BME280;58572;48.110;19.838;2024-02-23T01:49:09;96404.84;;;10.78;61.88
70921;BME280;58572;48.110;19.838;2024-02-23T01:51:38;96401.22;;;11.38;60.90
70921;BME280;58572;48.110;19.838;2024-02-23T01:54:05;96406.91;;;10.90;59.91
70921;BME280;58572;48.110;19.838;2024-02-23T01:56:33;96404.00;;;11.04;60.75
70921;BME280;58572;48.110;19.838;2024-02-23T01:59:02;96406.72;;;11.12;60.47
70921;BME280;58572;48.110;19.838;2024-02-23T02:01:30;96407.06;;;10.94;63.60
70921;BME280;58572;48.110;19.838;2024-02-23T02:03:58;96409.16;;;10.79;63.86
70921;BME280;58572;48.110;19.838;2024-02-23T02:06:25;96407.66;;;11.16;61.80
70921;BME280;58572;48.110;19.838;2024-02-23T02:08:54;96415.38;;;11.06;62.41
70921;BME280;58572;48.110;19.838;2024-02-23T02:11:21;96417.13;;;10.93;64.56
70921;BME280;58572;48.110;19.838;2024-02-23T02:13:48;96409.00;;;10.50;66.40
70921;BME280;58572;48.110;19.838;2024-02-23T02:16:15;96411.56;;;10.72;65.92
70921;BME280;58572;48.110;19.838;2024-02-23T02:18:42;96412.19;;;10.86;64.99
70921;BME280;58572;48.110;19.838;2024-02-23T02:21:09;96414.28;;;10.72;65.41
70921;BME280;58572;48.110;19.838;2024-02-23T02:23:36;96420.97;;;10.83;64.95
70921;BME280;58572;48.110;19.838;2024-02-23T02:26:05;96412.50;;;10.42;66.93
70921;BME280;58572;48.110;19.838;2024-02-23T02:28:32;96415.06;;;10.64;67.19
70921;BME280;58572;48.110;19.838;2024-02-23T02:30:59;96392.97;;;10.40;66.24
70921;BME280;58572;48.110;19.838;2024-02-23T02:33:26;96414.28;;;9.98;69.00
70921;BME280;58572;48.110;19.838;2024-02-23T02:35:54;96406.66;;;10.17;68.08
70921;BME280;58572;48.110;19.838;2024-02-23T02:38:21;96416.19;;;10.63;66.86
70921;BME280;58572;48.110;19.838;2024-02-23T02:40:48;96412.34;;;10.73;65.95
70921;BME280;58572;48.110;19.838;2024-02-23T02:43:16;96414.75;;;10.92;65.76
70921;BME280;58572;48.110;19.838;2024-02-23T02:45:43;96409.59;;;10.30;70.81
70921;BME280;58572;48.110;19.838;2024-02-23T02:48:11;96413.78;;;10.70;66.31
70921;BME280;58572;48.110;19.838;2024-02-23T02:50:38;96413.47;;;10.80;65.92
70921;BME280;58572;48.110;19.838;2024-02-23T02:53:05;96424.03;;;10.73;66.76
70921;BME280;58572;48.110;19.838;2024-02-23T02:55:32;96428.66;;;10.47;68.24
70921;BME280;58572;48.110;19.838;2024-02-23T02:58:00;96422.72;;;10.45;68.07
70921;BME280;58572;48.110;19.838;2024-02-23T03:00:28;96423.06;;;10.86;66.70
70921;BME280;58572;48.110;19.838;2024-02-23T03:02:56;96413.59;;;11.01;66.08
70921;BME280;58572;48.110;19.838;2024-02-23T03:05:23;96420.50;;;10.64;66.41
70921;BME280;58572;48.110;19.838;2024-02-23T03:07:50;96428.66;;;10.73;66.07
70921;BME280;58572;48.110;19.838;2024-02-23T03:10:17;96428.19;;;10.79;67.17
70921;BME280;58572;48.110;19.838;2024-02-23T03:12:44;96423.06;;;10.86;66.15
70921;BME280;58572;48.110;19.838;2024-02-23T03:15:11;96425.03;;;10.12;69.45
70921;BME280;58572;48.110;19.838;2024-02-23T03:17:40;96431.00;;;10.40;69.51
70921;BME280;58572;48.110;19.838;2024-02-23T03:20:07;96435.38;;;10.67;67.80
70921;BME280;58572;48.110;19.838;2024-02-23T03:22:36;96434.41;;;10.54;67.89
70921;BME280;58572;48.110;19.838;2024-02-23T03:25:04;96431.22;;;10.61;67.12
70921;BME280;58572;48.110;19.838;2024-02-23T03:27:35;96427.53;;;10.48;68.46
70921;BME280;58572;48.110;19.838;2024-02-23T03:30:03;96428.50;;;10.69;67.47
70921;BME280;58572;48.110;19.838;2024-02-23T03:32:30;96426.75;;;10.82;67.18
70921;BME280;58572;48.110;19.838;2024-02-23T03:35:03;96435.22;;;10.80;66.76
70921;BME280;58572;48.110;19.838;2024-02-23T03:37:30;96432.91;;;10.31;69.07
70921;BME280;58572;48.110;19.838;2024-02-23T03:39:57;96420.50;;;9.99;70.51
70921;BME280;58572;48.110;19.838;2024-02-23T03:42:26;96435.84;;;10.51;68.76
70921;BME280;58572;48.110;19.838;2024-02-23T03:44:53;96433.13;;;10.51;68.08
70921;BME280;58572;48.110;19.838;2024-02-23T03:47:20;96440.59;;;10.37;70.87
70921;BME280;58572;48.110;19.838;2024-02-23T03:49:48;96436.66;;;10.86;67.58
70921;BME280;58572;48.110;19.838;2024-02-23T03:52:16;96434.72;;;10.87;66.76
70921;BME280;58572;48.110;19.838;2024-02-23T03:54:43;96445.84;;;10.25;69.70
70921;BME280;58572;48.110;19.838;2024-02-23T03:57:10;96445.53;;;10.27;71.87
70921;BME280;58572;48.110;19.838;2024-02-23T03:59:37;96437.94;;;10.98;67.02
70921;BME280;58572;48.110;19.838;2024-02-23T04:02:04;96441.13;;;10.91;66.66
70921;BME280;58572;48.110;19.838;2024-02-23T04:04:31;96448.81;;;10.06;70.02
70921;BME280;58572;48.110;19.838;2024-02-23T04:06:58;96449.72;;;9.93;71.23
70921;BME280;58572;48.110;19.838;2024-02-23T04:09:27;96458.25;;;10.17;71.60
70921;BME280;58572;48.110;19.838;2024-02-23T04:11:55;96445.16;;;10.19;70.46
70921;BME280;58572;48.110;19.838;2024-02-23T04:14:22;96451.19;;;10.08;70.46
70921;BME280;58572;48.110;19.838;2024-02-23T04:16:49;96450.50;;;10.33;69.24
70921;BME280;58572;48.110;19.838;2024-02-23T04:19:16;96400.81;;;10.33;68.31
70921;BME280;58572;48.110;19.838;2024-02-23T04:21:43;96453.44;;;10.54;68.73
70921;BME280;58572;48.110;19.838;2024-02-23T04:24:10;96452.47;;;10.50;68.99
70921;BME280;58572;48.110;19.838;2024-02-23T04:26:39;96456.31;;;10.49;68.77
70921;BME280;58572;48.110;19.838;2024-02-23T04:29:06;96458.88;;;10.54;69.85
70921;BME280;58572;48.110;19.838;2024-02-23T04:31:33;96461.59;;;10.80;67.85
70921;BME280;58572;48.110;19.838;2024-02-23T04:34:02;96456.34;;;10.18;71.00
70921;BME280;58572;48.110;19.838;2024-02-23T04:36:29;96452.81;;;10.17;70.37
70921;BME280;58572;48.110;19.838;2024-02-23T04:38:56;96457.13;;;10.18;71.42
70921;BME280;58572;48.110;19.838;2024-02-23T04:41:23;96446.56;;;10.48;70.77
70921;BME280;58572;48.110;19.838;2024-02-23T04:43:52;96454.63;;;10.31;69.62
70921;BME280;58572;48.110;19.838;2024-02-23T04:46:24;96453.91;;;10.65;68.85
70921;BME280;58572;48.110;19.838;2024-02-23T04:48:51;96444.16;;;10.46;69.18
70921;BME280;58572;48.110;19.838;2024-02-23T04:51:18;96446.22;;;10.49;69.21
70921;BME280;58572;48.110;19.838;2024-02-23T04:53:45;96446.47;;;10.22;70.00
70921;BME280;58572;48.110;19.838;2024-02-23T04:56:12;96440.81;;;10.10;70.67
70921;BME280;58572;48.110;19.838;2024-02-23T04:58:39;96446.28;;;10.18;69.96
70921;BME280;58572;48.110;19.838;2024-02-23T05:01:09;96447.31;;;10.40;68.80
70921;BME280;58572;48.110;19.838;2024-02-23T05:03:37;96444.81;;;10.69;68.69
70921;BME280;58572;48.110;19.838;2024-02-23T05:06:04;96442.19;;;10.30;70.13
70921;BME280;58572;48.110;19.838;2024-02-23T05:08:31;96446.22;;;10.41;70.04
70921;BME280;58572;48.110;19.838;2024-02-23T05:10:58;96447.31;;;10.40;70.26
70921;BME280;58572;48.110;19.838;2024-02-23T05:13:25;96439.50;;;9.99;72.07
70921;BME280;58572;48.110;19.838;2024-02-23T05:15:54;96442.34;;;10.33;69.73
70921;BME280;58572;48.110;19.838;2024-02-23T05:18:24;96448.56;;;9.85;73.13
70921;BME280;58572;48.110;19.838;2024-02-23T05:20:51;96446.28;;;10.18;70.70
70921;BME280;58572;48.110;19.838;2024-02-23T05:23:18;96452.47;;;10.50;68.88
70921;BME280;58572;48.110;19.838;2024-02-23T05:25:45;96441.59;;;10.59;69.50
70921;BME280;58572;48.110;19.838;2024-02-23T05:28:12;96444.91;;;10.30;70.64
70921;BME280;58572;48.110;19.838;2024-02-23T05:30:39;96443.84;;;10.48;70.40
70921;BME280;58572;48.110;19.838;2024-02-23T05:33:07;96445.53;;;10.27;70.90
70921;BME280;58572;48.110;19.838;2024-02-23T05:35:35;96441.84;;;10.22;70.52
70921;BME280;58572;48.110;19.838;2024-02-23T05:38:02;96448.56;;;10.34;70.74
70921;BME280;58572;48.110;19.838;2024-02-23T05:40:29;96448.56;;;10.34;71.12
70921;BME280;58572;48.110;19.838;2024-02-23T05:43:04;96451.16;;;10.39;70.35
70921;BME280;58572;48.110;19.838;2024-02-23T05:45:31;96449.97;;;9.74;75.80
70921;BME280;58572;48.110;19.838;2024-02-23T05:47:58;96444.97;;;10.07;72.64
70921;BME280;58572;48.110;19.838;2024-02-23T05:50:25;96443.84;;;10.65;70.49
70921;BME280;58572;48.110;19.838;2024-02-23T05:52:53;96454.72;;;10.74;69.46
70921;BME280;58572;48.110;19.838;2024-02-23T05:55:20;96457.13;;;10.18;71.76
70921;BME280;58572;48.110;19.838;2024-02-23T05:57:47;96462.78;;;10.22;71.67
70921;BME280;58572;48.110;19.838;2024-02-23T06:00:17;96461.06;;;9.95;73.41
70921;BME280;58572;48.110;19.838;2024-02-23T06:02:44;96458.53;;;10.47;71.32
70921;BME280;58572;48.110;19.838;2024-02-23T06:05:12;96453.13;;;10.64;70.91
70921;BME280;58572;48.110;19.838;2024-02-23T06:07:39;96456.31;;;10.66;71.05
70921;BME280;58572;48.110;19.838;2024-02-23T06:10:08;96465.91;;;10.15;72.52
70921;BME280;58572;48.110;19.838;2024-02-23T06:12:35;96470.66;;;10.41;71.23
70921;BME280;58572;48.110;19.838;2024-02-23T06:15:04;96467.47;;;9.99;73.38
70921;BME280;58572;48.110;19.838;2024-02-23T06:17:32;96470.00;;;10.35;71.79
70921;BME280;58572;48.110;19.838;2024-02-23T06:19:59;96486.81;;;10.46;73.90
70921;BME280;58572;48.110;19.838;2024-02-23T06:22:26;96479.78;;;10.45;71.63
70921;BME280;58572;48.110;19.838;2024-02-23T06:24:53;96486.81;;;10.06;73.67
70921;BME280;58572;48.110;19.838;2024-02-23T06:27:21;96382.75;;;9.71;71.63
70921;BME280;58572;48.110;19.838;2024-02-23T06:29:50;96491.59;;;10.40;72.49
70921;BME280;58572;48.110;19.838;2024-02-23T06:32:17;96494.69;;;10.73;70.84
70921;BME280;58572;48.110;19.838;2024-02-23T06:34:44;96503.75;;;10.43;71.95
70921;BME280;58572;48.110;19.838;2024-02-23T06:37:11;96498.66;;;10.10;73.35
70921;BME280;58572;48.110;19.838;2024-02-23T06:39:39;96507.44;;;10.16;73.84
70921;BME280;58572;48.110;19.838;2024-02-23T06:42:06;96510.84;;;10.78;71.31
70921;BME280;58572;48.110;19.838;2024-02-23T06:44:35;96509.41;;;10.72;70.74
70921;BME280;58572;48.110;19.838;2024-02-23T06:47:02;96519.75;;;10.13;73.65
70921;BME280;58572;48.110;19.838;2024-02-23T06:49:29;96506.22;;;10.22;74.29
70921;BME280;58572;48.110;19.838;2024-02-23T06:51:56;96511.19;;;10.29;73.74
70921;BME280;58572;48.110;19.838;2024-02-23T06:54:23;96520.28;;;10.24;73.86
70921;BME280;58572;48.110;19.838;2024-02-23T06:56:50;96507.06;;;10.31;75.18
70921;BME280;58572;48.110;19.838;2024-02-23T06:59:18;96511.44;;;10.18;75.50
70921;BME280;58572;48.110;19.838;2024-02-23T07:01:50;96515.13;;;10.53;72.85
70921;BME280;58572;48.110;19.838;2024-02-23T07:04:17;96522.19;;;10.23;73.38
70921;BME280;58572;48.110;19.838;2024-02-23T07:06:44;96524.72;;;10.60;72.16
70921;BME280;58572;48.110;19.838;2024-02-23T07:09:12;96533.72;;;10.95;71.05
70921;BME280;58572;48.110;19.838;2024-02-23T07:11:39;96527.03;;;11.01;70.04
70921;BME280;58572;48.110;19.838;2024-02-23T07:14:09;96527.94;;;10.70;71.87
70921;BME280;58572;48.110;19.838;2024-02-23T07:16:37;96536.75;;;10.84;71.71
70921;BME280;58572;48.110;19.838;2024-02-23T07:19:12;96537.09;;;11.00;70.63
70921;BME280;58572;48.110;19.838;2024-02-23T07:21:39;96538.50;;;10.80;72.15
70921;BME280;58572;48.110;19.838;2024-02-23T07:24:07;96531.63;;;10.66;71.99
70921;BME280;58572;48.110;19.838;2024-02-23T07:26:34;96529.91;;;10.39;73.87
70921;BME280;58572;48.110;19.838;2024-02-23T07:29:01;96542.03;;;10.81;71.93
70921;BME280;58572;48.110;19.838;2024-02-23T07:31:29;96527.94;;;10.70;72.69
70921;BME280;58572;48.110;19.838;2024-02-23T07:33:56;96530.28;;;10.46;72.50
70921;BME280;58572;48.110;19.838;2024-02-23T07:36:24;96536.59;;;10.90;71.84
70921;BME280;58572;48.110;19.838;2024-02-23T07:38:51;96538.81;;;10.70;75.82
70921;BME280;58572;48.110;19.838;2024-02-23T07:41:18;96533.88;;;10.90;72.04
70921;BME280;58572;48.110;19.838;2024-02-23T07:43:45;96530.38;;;11.32;70.18
70921;BME280;58572;48.110;19.838;2024-02-23T07:46:12;96531.81;;;10.86;72.99
70921;BME280;58572;48.110;19.838;2024-02-23T07:48:40;96540.59;;;10.83;72.35
70921;BME280;58572;48.110;19.838;2024-02-23T07:51:07;96540.28;;;11.37;70.10
70921;BME280;58572;48.110;19.838;2024-02-23T07:53:41;96542.22;;;11.28;69.97
70921;BME280;58572;48.110;19.838;2024-02-23T07:56:09;96541.56;;;11.05;72.96
70921;BME280;58572;48.110;19.838;2024-02-23T07:58:37;96528.13;;;11.43;70.62
70921;BME280;58572;48.110;19.838;2024-02-23T08:01:04;96534.22;;;11.31;71.54
70921;BME280;58572;48.110;19.838;2024-02-23T08:03:31;96531.47;;;11.66;70.16
70921;BME280;58572;48.110;19.838;2024-02-23T08:05:58;96531.63;;;11.69;69.41
70921;BME280;58572;48.110;19.838;2024-02-23T08:08:26;96525.88;;;11.71;69.93
70921;BME280;58572;48.110;19.838;2024-02-23T08:10:55;96542.69;;;11.30;70.25
70921;BME280;58572;48.110;19.838;2024-02-23T08:13:22;96539.19;;;11.46;70.66
70921;BME280;58572;48.110;19.838;2024-02-23T08:15:49;96539.50;;;11.19;72.10
70921;BME280;58572;48.110;19.838;2024-02-23T08:18:16;96538.06;;;11.13;72.94
70921;BME280;58572;48.110;19.838;2024-02-23T08:20:43;96531.16;;;11.41;72.04
70921;BME280;58572;48.110;19.838;2024-02-23T08:23:10;96527.03;;;11.52;72.65
70921;BME280;58572;48.110;19.838;2024-02-23T08:25:36;96534.34;;;10.74;74.62
70921;BME280;58572;48.110;19.838;2024-02-23T08:28:05;96538.22;;;11.25;74.54
70921;BME280;58572;48.110;19.838;2024-02-23T08:30:33;96540.94;;;11.25;75.09
70921;BME280;58572;48.110;19.838;2024-02-23T08:33:00;96518.22;;;11.12;73.62
70921;BME280;58572;48.110;19.838;2024-02-23T08:35:27;96536.09;;;10.70;76.78
70921;BME280;58572;48.110;19.838;2024-02-23T08:37:54;96538.22;;;10.91;74.70
70921;BME280;58572;48.110;19.838;2024-02-23T08:40:21;96547.97;;;10.83;75.08
70921;BME280;58572;48.110;19.838;2024-02-23T08:42:48;96548.13;;;10.86;73.95
70921;BME280;58572;48.110;19.838;2024-02-23T08:45:17;96546.69;;;10.89;74.04
70921;BME280;58572;48.110;19.838;2024-02-23T08:47:44;96553.09;;;10.36;77.54
70921;BME280;58572;48.110;19.838;2024-02-23T08:50:11;96552.63;;;11.00;73.95
70921;BME280;58572;48.110;19.838;2024-02-23T08:52:38;96565.41;;;10.91;74.45
70921;BME280;58572;48.110;19.838;2024-02-23T08:55:06;96501.41;;;10.67;73.05
70921;BME280;58572;48.110;19.838;2024-02-23T08:57:33;96552.63;;;11.34;72.26
70921;BME280;58572;48.110;19.838;2024-02-23T09:00:00;96562.56;;;11.65;71.50
70921;BME280;58572;48.110;19.838;2024-02-23T09:02:28;96555.19;;;11.65;70.46
70921;BME280;58572;48.110;19.838;2024-02-23T09:04:56;96551.00;;;10.99;72.51
70921;BME280;58572;48.110;19.838;2024-02-23T09:07:23;96542.84;;;11.42;71.68
70921;BME280;58572;48.110;19.838;2024-02-23T09:09:50;96555.69;;;11.50;72.18
70921;BME280;58572;48.110;19.838;2024-02-23T09:12:18;96559.19;;;11.33;75.43
70921;BME280;58572;48.110;19.838;2024-02-23T09:14:45;96550.53;;;11.40;72.94
70921;BME280;58572;48.110;19.838;2024-02-23T09:17:12;96564.94;;;11.32;73.90
70921;BME280;58572;48.110;19.838;2024-02-23T09:19:41;96562.66;;;10.82;75.31
70921;BME280;58572;48.110;19.838;2024-02-23T09:22:08;96554.78;;;10.63;76.07
70921;BME280;58572;48.110;19.838;2024-02-23T09:24:35;96556.91;;;10.92;75.17
70921;BME280;58572;48.110;19.838;2024-02-23T09:27:05;96571.78;;;10.77;75.60
70921;BME280;58572;48.110;19.838;2024-02-23T09:29:37;96565.59;;;11.46;73.42
70921;BME280;58572;48.110;19.838;2024-02-23T09:32:08;96574.03;;;11.96;70.83
70921;BME280;58572;48.110;19.838;2024-02-23T09:34:35;96565.59;;;11.46;72.15
70921;BME280;58572;48.110;19.838;2024-02-23T09:37:04;96567.13;;;10.69;77.24
70921;BME280;58572;48.110;19.838;2024-02-23T09:39:31;96540.94;;;10.99;73.47
70921;BME280;58572;48.110;19.838;2024-02-23T09:41:58;96567.28;;;10.33;77.38
70921;BME280;58572;48.110;19.838;2024-02-23T09:44:26;96545.41;;;11.12;75.52
70921;BME280;58572;48.110;19.838;2024-02-23T09:47:00;96568.59;;;11.01;74.68
70921;BME280;58572;48.110;19.838;2024-02-23T09:49:27;96566.53;;;11.93;71.19
70921;BME280;58572;48.110;19.838;2024-02-23T09:51:55;96566.50;;;12.02;69.88
70921;BME280;58572;48.110;19.838;2024-02-23T09:54:23;96571.81;;;11.12;73.45
70921;BME280;58572;48.110;19.838;2024-02-23T09:56:51;96582.22;;;11.18;73.47
70921;BME280;58572;48.110;19.838;2024-02-23T09:59:19;96583.03;;;11.19;73.82
70921;BME280;58572;48.110;19.838;2024-02-23T10:01:46;96576.81;;;11.53;71.85
70921;BME280;58572;48.110;19.838;2024-02-23T10:04:14;96580.50;;;11.83;71.18
70921;BME280;58572;48.110;19.838;2024-02-23T10:06:42;96490.72;;;10.97;72.65
70921;BME280;58572;48.110;19.838;2024-02-23T10:09:09;96573.25;;;12.51;69.10
70921;BME280;58572;48.110;19.838;2024-02-23T10:11:39;96577.91;;;11.35;74.63
70921;BME280;58572;48.110;19.838;2024-02-23T10:14:07;96580.66;;;11.52;72.03
70921;BME280;58572;48.110;19.838;2024-02-23T10:16:35;96583.03;;;11.71;72.29
70921;BME280;58572;48.110;19.838;2024-02-23T10:19:02;96579.34;;;11.67;71.84
70921;BME280;58572;48.110;19.838;2024-02-23T10:21:29;96583.50;;;11.99;70.44
70921;BME280;58572;48.110;19.838;2024-02-23T10:23:56;96591.34;;;11.31;72.92
70921;BME280;58572;48.110;19.838;2024-02-23T10:26:23;96596.78;;;12.00;69.46
70921;BME280;58572;48.110;19.838;2024-02-23T10:28:53;96591.84;;;12.49;68.29
70921;BME280;58572;48.110;19.838;2024-02-23T10:31:22;96592.47;;;12.46;70.07
70921;BME280;58572;48.110;19.838;2024-02-23T10:33:50;96586.41;;;11.85;70.96
70921;BME280;58572;48.110;19.838;2024-02-23T10:36:18;96592.31;;;11.70;72.60
70921;BME280;58572;48.110;19.838;2024-02-23T10:38:51;96589.66;;;12.72;67.65
70921;BME280;58572;48.110;19.838;2024-02-23T10:41:21;96585.91;;;12.00;70.56
70921;BME280;58572;48.110;19.838;2024-02-23T10:43:48;96608.78;;;11.22;72.59
70921;BME280;58572;48.110;19.838;2024-02-23T10:46:20;96607.28;;;12.28;69.53
70921;BME280;58572;48.110;19.838;2024-02-23T10:48:48;96610.44;;;12.47;67.92
70921;BME280;58572;48.110;19.838;2024-02-23T10:51:16;96612.25;;;12.26;70.59
70921;BME280;58572;48.110;19.838;2024-02-23T10:53:44;96627.50;;;12.27;69.25
70921;BME280;58572;48.110;19.838;2024-02-23T10:56:12;96635.09;;;12.59;67.28
70921;BME280;58572;48.110;19.838;2024-02-23T10:58:39;96626.78;;;12.47;68.75
70921;BME280;58572;48.110;19.838;2024-02-23T11:01:07;96629.03;;;11.81;71.59
70921;BME280;58572;48.110;19.838;2024-02-23T11:03:38;96638.34;;;10.97;73.24
70921;BME280;58572;48.110;19.838;2024-02-23T11:06:08;96628.47;;;12.13;69.47
70921;BME280;58572;48.110;19.838;2024-02-23T11:08:35;96629.97;;;11.76;70.38
70921;BME280;58572;48.110;19.838;2024-02-23T11:11:07;96634.31;;;11.86;69.41
70921;BME280;58572;48.110;19.838;2024-02-23T11:13:35;96623.41;;;11.51;71.08
70921;BME280;58572;48.110;19.838;2024-02-23T11:16:02;96637.03;;;11.77;71.06
70921;BME280;58572;48.110;19.838;2024-02-23T11:18:30;96637.00;;;11.95;69.43
70921;BME280;58572;48.110;19.838;2024-02-23T11:21:02;96627.88;;;12.63;66.70
70921;BME280;58572;48.110;19.838;2024-02-23T11:23:40;96626.19;;;12.33;68.25
70921;BME280;58572;48.110;19.838;2024-02-23T11:26:09;96605.41;;;12.96;66.73
70921;BME280;58572;48.110;19.838;2024-02-23T11:28:43;96610.41;;;13.23;66.35
70921;BME280;58572;48.110;19.838;2024-02-23T11:31:13;96622.13;;;13.24;67.34
70921;BME280;58572;48.110;19.838;2024-02-23T11:33:47;96611.81;;;13.00;68.18
70921;BME280;58572;48.110;19.838;2024-02-23T11:36:23;96621.94;;;12.61;69.35
70921;BME280;58572;48.110;19.838;2024-02-23T11:38:52;96627.44;;;12.53;71.45
70921;BME280;58572;48.110;19.838;2024-02-23T11:41:21;96613.25;;;12.68;69.65
70921;BME280;58572;48.110;19.838;2024-02-23T11:43:49;96621.94;;;12.61;69.39
70921;BME280;58572;48.110;19.838;2024-02-23T11:46:17;96624.06;;;12.56;68.65
70921;BME280;58572;48.110;19.838;2024-02-23T11:48:44;96623.09;;;12.52;68.72
70921;BME280;58572;48.110;19.838;2024-02-23T11:51:12;96626.00;;;12.85;67.52
70921;BME280;58572;48.110;19.838;2024-02-23T11:53:41;96636.44;;;12.83;67.17
70921;BME280;58572;48.110;19.838;2024-02-23T11:56:09;96629.44;;;12.18;69.29
70921;BME280;58572;48.110;19.838;2024-02-23T11:58:36;96631.19;;;12.77;67.31
70921;BME280;58572;48.110;19.838;2024-02-23T12:01:04;96611.41;;;11.87;69.96
70921;BME280;58572;48.110;19.838;2024-02-23T12:03:32;96631.13;;;12.39;68.24
70921;BME280;58572;48.110;19.838;2024-02-23T12:06:00;96631.94;;;12.87;67.36
70921;BME280;58572;48.110;19.838;2024-02-23T12:08:28;96631.19;;;12.77;67.41
70921;BME280;58572;48.110;19.838;2024-02-23T12:10:59;96637.69;;;12.47;67.55
70921;BME280;58572;48.110;19.838;2024-02-23T12:13:26;96642.66;;;12.45;68.58
70921;BME280;58572;48.110;19.838;2024-02-23T12:15:54;96648.34;;;11.36;71.65
70921;BME280;58572;48.110;19.838;2024-02-23T12:18:21;96646.00;;;12.59;68.34
70921;BME280;58572;48.110;19.838;2024-02-23T12:20:51;96654.81;;;12.65;68.29
70921;BME280;58572;48.110;19.838;2024-02-23T12:23:18;96651.84;;;12.32;69.05
70921;BME280;58572;48.110;19.838;2024-02-23T12:25:52;96657.34;;;12.14;68.73
70921;BME280;58572;48.110;19.838;2024-02-23T12:28:22;96661.81;;;12.19;69.03
70921;BME280;58572;48.110;19.838;2024-02-23T12:30:59;96650.25;;;12.77;67.27
70921;BME280;58572;48.110;19.838;2024-02-23T12:33:27;96645.56;;;13.16;65.19
70921;BME280;58572;48.110;19.838;2024-02-23T12:35:55;96647.84;;;13.14;65.74
70921;BME280;58572;48.110;19.838;2024-02-23T12:38:22;96648.13;;;13.21;68.93
70921;BME280;58572;48.110;19.838;2024-02-23T12:40:50;96643.44;;;13.30;67.41
70921;BME280;58572;48.110;19.838;2024-02-23T12:43:17;96655.00;;;13.27;67.93
70921;BME280;58572;48.110;19.838;2024-02-23T12:45:48;96651.97;;;13.50;67.21
70921;BME280;58572;48.110;19.838;2024-02-23T12:48:16;96653.34;;;13.35;65.79
70921;BME280;58572;48.110;19.838;2024-02-23T12:50:43;96652.78;;;12.53;70.52
70921;BME280;58572;48.110;19.838;2024-02-23T12:53:30;96621.59;;;13.30;66.27